createdAt,value
2023-05-25T00:00:11.587Z,0.00
2023-05-25T00:01:11.550Z,0.00
2023-05-25T00:02:11.534Z,0.00
2023-05-25T00:03:11.582Z,0.00
2023-05-25T00:04:11.739Z,0.00
2023-05-25T00:05:12.538Z,0.00
2023-05-25T00:06:12.506Z,0.00
2023-05-25T00:07:11.501Z,0.00
2023-05-25T00:08:11.495Z,0.00
2023-05-25T00:09:11.517Z,0.00
2023-05-25T00:10:11.501Z,0.00
2023-05-25T00:11:11.468Z,0.00
2023-05-25T00:12:11.461Z,0.00
2023-05-25T00:13:11.496Z,0.00
2023-05-25T00:14:11.496Z,0.00
2023-05-25T00:15:11.438Z,0.00
2023-05-25T00:16:11.434Z,0.00
2023-05-25T00:17:11.457Z,0.00
2023-05-25T00:18:11.420Z,0.00
2023-05-25T00:19:11.438Z,0.00
2023-05-25T00:20:11.440Z,0.00
2023-05-25T00:21:11.391Z,0.00
2023-05-25T00:22:11.385Z,0.00
2023-05-25T00:23:11.398Z,0.00
2023-05-25T00:24:11.405Z,0.00
2023-05-25T00:25:11.363Z,0.00
2023-05-25T00:26:11.365Z,0.00
2023-05-25T00:27:11.348Z,0.00
2023-05-25T00:28:11.381Z,0.00
2023-05-25T00:29:11.351Z,0.00
2023-05-25T00:30:11.326Z,0.00
2023-05-25T00:31:11.337Z,0.00
2023-05-25T00:32:11.310Z,0.00
2023-05-25T00:33:11.326Z,0.00
2023-05-25T00:34:11.300Z,0.00
2023-05-25T00:35:11.291Z,0.00
2023-05-25T00:36:11.278Z,0.00
2023-05-25T00:37:11.295Z,0.00
2023-05-25T00:38:11.289Z,0.00
2023-05-25T00:39:11.248Z,0.00
2023-05-25T00:40:11.242Z,0.00
2023-05-25T00:41:11.236Z,0.00
2023-05-25T00:42:11.281Z,0.00
2023-05-25T00:43:11.218Z,0.00
2023-05-25T00:44:11.211Z,0.00
2023-05-25T00:45:11.214Z,0.00
2023-05-25T00:46:11.265Z,0.00
2023-05-25T00:47:11.217Z,0.00
2023-05-25T00:48:11.245Z,0.00
2023-05-25T00:49:11.172Z,0.00
2023-05-25T00:50:11.162Z,0.00
2023-05-25T00:51:11.155Z,0.00
2023-05-25T00:52:11.176Z,0.00
2023-05-25T00:53:11.136Z,0.00
2023-05-25T00:54:11.134Z,0.00
2023-05-25T00:55:11.126Z,0.00
2023-05-25T00:56:11.143Z,0.00
2023-05-25T00:57:11.139Z,0.00
2023-05-25T00:58:11.114Z,0.00
2023-05-25T00:59:11.102Z,0.00
2023-05-25T01:00:11.086Z,0.00
2023-05-25T01:01:11.111Z,0.00
2023-05-25T01:02:11.199Z,0.00
2023-05-25T01:03:11.296Z,0.00
2023-05-25T01:04:12.115Z,0.00
2023-05-25T01:05:11.059Z,0.00
2023-05-25T01:06:11.070Z,0.00
2023-05-25T01:07:11.035Z,0.00
2023-05-25T01:08:11.026Z,0.00
2023-05-25T01:09:11.018Z,0.00
2023-05-25T01:10:11.042Z,0.00
2023-05-25T01:11:11.027Z,0.00
2023-05-25T01:12:10.997Z,0.00
2023-05-25T01:13:11.000Z,0.00
2023-05-25T01:14:10.998Z,0.00
2023-05-25T01:15:10.992Z,0.00
2023-05-25T01:16:10.969Z,0.00
2023-05-25T01:17:10.963Z,0.00
2023-05-25T01:18:10.937Z,0.00
2023-05-25T01:19:10.957Z,0.00
2023-05-25T01:20:11.963Z,0.00
2023-05-25T01:21:11.918Z,0.00
2023-05-25T01:22:10.915Z,0.00
2023-05-25T01:23:10.897Z,0.00
2023-05-25T01:24:10.910Z,0.00
2023-05-25T01:25:10.904Z,0.00
2023-05-25T01:26:10.873Z,0.00
2023-05-25T01:27:10.860Z,0.00
2023-05-25T01:28:10.853Z,0.00
2023-05-25T01:29:10.869Z,0.00
2023-05-25T01:30:10.852Z,0.00
2023-05-25T01:31:10.823Z,0.00
2023-05-25T01:32:10.860Z,0.00
2023-05-25T01:33:10.935Z,0.00
2023-05-25T01:34:10.836Z,0.00
2023-05-25T01:35:10.802Z,0.00
2023-05-25T01:36:10.791Z,0.00
2023-05-25T01:37:10.795Z,0.00
2023-05-25T01:38:10.805Z,0.00
2023-05-25T01:39:10.798Z,0.00
2023-05-25T01:40:10.751Z,0.00
2023-05-25T01:41:11.760Z,0.00
2023-05-25T01:42:10.745Z,0.00
2023-05-25T01:43:10.804Z,0.00
2023-05-25T01:44:10.731Z,0.00
2023-05-25T01:45:10.745Z,0.00
2023-05-25T01:46:10.764Z,0.00
2023-05-25T01:47:10.713Z,0.00
2023-05-25T01:48:10.773Z,0.00
2023-05-25T01:49:10.700Z,0.00
2023-05-25T01:50:10.698Z,0.00
2023-05-25T01:51:10.684Z,0.00
2023-05-25T01:52:10.759Z,0.00
2023-05-25T01:53:10.694Z,0.00
2023-05-25T01:54:10.656Z,0.00
2023-05-25T01:55:10.654Z,0.00
2023-05-25T01:56:10.653Z,0.00
2023-05-25T01:57:10.698Z,0.00
2023-05-25T01:58:10.656Z,0.00
2023-05-25T01:59:10.625Z,0.00
2023-05-25T02:00:10.617Z,0.00
2023-05-25T02:01:10.641Z,0.00
2023-05-25T02:02:11.626Z,0.00
2023-05-25T02:03:10.687Z,0.00
2023-05-25T02:04:10.699Z,0.00
2023-05-25T02:05:10.606Z,0.00
2023-05-25T02:06:10.576Z,0.00
2023-05-25T02:07:10.592Z,0.00
2023-05-25T02:08:10.552Z,0.00
2023-05-25T02:09:10.623Z,0.00
2023-05-25T02:10:10.540Z,0.00
2023-05-25T02:11:10.566Z,0.00
2023-05-25T02:12:10.552Z,0.00
2023-05-25T02:13:10.532Z,0.00
2023-05-25T02:14:10.513Z,0.00
2023-05-25T02:15:10.515Z,0.00
2023-05-25T02:16:10.547Z,0.00
2023-05-25T02:17:10.491Z,0.00
2023-05-25T02:18:10.480Z,0.00
2023-05-25T02:19:10.479Z,0.00
2023-05-25T02:20:10.482Z,0.00
2023-05-25T02:21:10.482Z,0.00
2023-05-25T02:22:10.459Z,0.00
2023-05-25T02:23:10.445Z,0.00
2023-05-25T02:24:10.446Z,0.00
2023-05-25T02:25:10.433Z,0.00
2023-05-25T02:26:10.451Z,0.00
2023-05-25T02:27:10.419Z,0.00
2023-05-25T02:28:10.404Z,0.00
2023-05-25T02:29:10.395Z,0.00
2023-05-25T02:30:10.423Z,0.00
2023-05-25T02:31:10.492Z,0.00
2023-05-25T02:32:10.377Z,0.00
2023-05-25T02:33:10.366Z,0.00
2023-05-25T02:34:10.351Z,4.00
2023-05-25T02:35:10.382Z,4.00
2023-05-25T02:36:10.341Z,0.00
2023-05-25T02:37:10.332Z,0.00
2023-05-25T02:38:10.331Z,0.00
2023-05-25T02:39:10.322Z,4.00
2023-05-25T02:40:10.337Z,4.00
2023-05-25T02:41:10.302Z,4.00
2023-05-25T02:42:10.279Z,4.00
2023-05-25T02:43:11.288Z,4.00
2023-05-25T02:44:10.309Z,4.00
2023-05-25T02:45:10.287Z,8.00
2023-05-25T02:46:10.298Z,8.00
2023-05-25T02:47:10.304Z,8.00
2023-05-25T02:48:10.242Z,8.00
2023-05-25T02:49:10.287Z,12.00
2023-05-25T02:50:10.236Z,12.00
2023-05-25T02:51:10.221Z,12.00
2023-05-25T02:52:10.223Z,16.00
2023-05-25T02:53:10.207Z,16.00
2023-05-25T02:54:10.229Z,20.00
2023-05-25T02:55:10.291Z,20.00
2023-05-25T02:56:10.190Z,20.00
2023-05-25T02:57:10.187Z,24.00
2023-05-25T02:58:10.193Z,28.00
2023-05-25T02:59:10.183Z,36.00
2023-05-25T03:00:10.153Z,36.00
2023-05-25T03:01:10.208Z,48.00
2023-05-25T03:02:10.145Z,52.00
2023-05-25T03:03:10.337Z,56.00
2023-05-25T03:04:10.164Z,60.00
2023-05-25T03:05:10.123Z,64.00
2023-05-25T03:06:10.116Z,68.00
2023-05-25T03:07:10.097Z,76.00
2023-05-25T03:08:10.111Z,84.00
2023-05-25T03:09:10.078Z,92.00
2023-05-25T03:10:10.074Z,100.00
2023-05-25T03:11:10.066Z,112.00
2023-05-25T03:12:10.063Z,120.00
2023-05-25T03:13:10.078Z,128.00
2023-05-25T03:14:10.041Z,144.00
2023-05-25T03:15:10.048Z,156.00
2023-05-25T03:16:10.057Z,172.00
2023-05-25T03:17:10.023Z,188.00
2023-05-25T03:18:10.042Z,208.00
2023-05-25T03:19:10.004Z,232.00
2023-05-25T03:20:10.051Z,248.00
2023-05-25T03:21:09.991Z,260.00
2023-05-25T03:22:10.010Z,276.00
2023-05-25T03:23:09.999Z,292.00
2023-05-25T03:24:09.968Z,292.00
2023-05-25T03:25:09.961Z,304.00
2023-05-25T03:26:09.951Z,320.00
2023-05-25T03:27:09.975Z,336.00
2023-05-25T03:28:09.941Z,352.00
2023-05-25T03:29:09.924Z,368.00
2023-05-25T03:30:09.919Z,396.00
2023-05-25T03:31:09.907Z,432.00
2023-05-25T03:32:09.990Z,456.00
2023-05-25T03:33:09.956Z,488.00
2023-05-25T03:34:09.883Z,524.00
2023-05-25T03:35:09.877Z,552.00
2023-05-25T03:36:09.867Z,580.00
2023-05-25T03:37:09.894Z,604.00
2023-05-25T03:38:09.869Z,636.00
2023-05-25T03:39:09.849Z,672.00
2023-05-25T03:40:09.830Z,696.00
2023-05-25T03:41:09.852Z,704.00
2023-05-25T03:42:09.848Z,728.00
2023-05-25T03:43:09.815Z,784.00
2023-05-25T03:44:09.804Z,836.00
2023-05-25T03:45:09.812Z,856.00
2023-05-25T03:46:09.834Z,852.00
2023-05-25T03:47:09.790Z,836.00
2023-05-25T03:48:09.777Z,788.00
2023-05-25T03:49:09.769Z,748.00
2023-05-25T03:50:09.755Z,700.00
2023-05-25T03:51:09.777Z,644.00
2023-05-25T03:52:09.744Z,648.00
2023-05-25T03:53:09.741Z,652.00
2023-05-25T03:54:09.732Z,636.00
2023-05-25T03:55:09.738Z,628.00
2023-05-25T03:56:09.740Z,628.00
2023-05-25T03:57:09.701Z,628.00
2023-05-25T03:58:09.691Z,660.00
2023-05-25T03:59:09.696Z,744.00
2023-05-25T04:00:09.709Z,792.00
2023-05-25T04:01:09.942Z,816.00
2023-05-25T04:02:09.735Z,832.00
2023-05-25T04:03:09.737Z,880.00
2023-05-25T04:04:09.731Z,980.00
2023-05-25T04:05:09.663Z,948.00
2023-05-25T04:06:09.637Z,900.00
2023-05-25T04:07:09.614Z,912.00
2023-05-25T04:08:09.609Z,892.00
2023-05-25T04:09:09.597Z,912.00
2023-05-25T04:10:09.636Z,872.00
2023-05-25T04:11:09.585Z,936.00
2023-05-25T04:12:09.587Z,952.00
2023-05-25T04:13:09.657Z,968.00
2023-05-25T04:14:09.587Z,1008.00
2023-05-25T04:15:09.699Z,996.00
2023-05-25T04:16:09.804Z,940.00
2023-05-25T04:17:10.544Z,956.00
2023-05-25T04:18:09.576Z,1012.00
2023-05-25T04:19:09.554Z,1092.00
2023-05-25T04:20:09.550Z,1232.00
2023-05-25T04:21:09.512Z,1268.00
2023-05-25T04:22:09.501Z,1312.00
2023-05-25T04:23:09.521Z,1344.00
2023-05-25T04:24:09.512Z,1400.00
2023-05-25T04:25:09.478Z,1420.00
2023-05-25T04:26:09.485Z,1516.00
2023-05-25T04:27:09.483Z,1568.00
2023-05-25T04:28:09.481Z,1664.00
2023-05-25T04:29:09.447Z,1628.00
2023-05-25T04:30:09.439Z,1488.00
2023-05-25T04:31:09.556Z,1452.00
2023-05-25T04:32:09.503Z,1448.00
2023-05-25T04:33:09.500Z,1436.00
2023-05-25T04:34:09.433Z,1584.00
2023-05-25T04:35:09.400Z,1636.00
2023-05-25T04:36:09.393Z,1668.00
2023-05-25T04:37:09.426Z,1744.00
2023-05-25T04:38:09.412Z,1892.00
2023-05-25T04:39:09.364Z,2108.00
2023-05-25T04:40:09.358Z,2280.00
2023-05-25T04:41:09.358Z,2332.00
2023-05-25T04:42:09.384Z,2632.00
2023-05-25T04:43:09.359Z,3040.00
2023-05-25T04:44:10.432Z,3784.00
2023-05-25T04:45:10.320Z,5316.00
2023-05-25T04:46:09.320Z,7024.00
2023-05-25T04:47:09.335Z,6476.00
2023-05-25T04:48:09.314Z,8020.00
2023-05-25T04:49:09.300Z,15552.00
2023-05-25T04:50:09.281Z,17088.00
2023-05-25T04:51:09.279Z,15328.00
2023-05-25T04:52:09.301Z,19200.00
2023-05-25T04:53:09.256Z,17888.00
2023-05-25T04:54:09.248Z,16448.00
2023-05-25T04:55:09.240Z,13816.00
2023-05-25T04:56:09.258Z,18240.00
2023-05-25T04:57:09.247Z,18336.00
2023-05-25T04:58:09.218Z,22720.00
2023-05-25T04:59:09.208Z,22304.00
2023-05-25T05:00:09.205Z,17696.00
2023-05-25T05:01:09.260Z,14872.00
2023-05-25T05:02:09.191Z,14944.00
2023-05-25T05:03:09.256Z,14852.00
2023-05-25T05:04:09.200Z,11540.00
2023-05-25T05:05:09.177Z,8636.00
2023-05-25T05:06:09.181Z,8316.00
2023-05-25T05:07:09.168Z,11292.00
2023-05-25T05:08:09.149Z,12440.00
2023-05-25T05:09:09.134Z,9816.00
2023-05-25T05:10:09.123Z,10028.00
2023-05-25T05:11:09.141Z,11228.00
2023-05-25T05:12:11.293Z,10860.00
2023-05-25T05:13:10.105Z,9836.00
2023-05-25T05:14:09.099Z,11440.00
2023-05-25T05:15:09.109Z,9752.00
2023-05-25T05:16:09.118Z,11356.00
2023-05-25T05:17:09.073Z,9664.00
2023-05-25T05:18:09.103Z,9664.00
2023-05-25T05:19:09.056Z,11432.00
2023-05-25T05:20:09.177Z,14900.00
2023-05-25T05:21:09.039Z,16768.00
2023-05-25T05:22:09.030Z,15460.00
2023-05-25T05:23:09.024Z,15040.00
2023-05-25T05:24:09.024Z,16192.00
2023-05-25T05:25:09.033Z,11012.00
2023-05-25T05:26:09.000Z,13036.00
2023-05-25T05:27:08.992Z,14776.00
2023-05-25T05:28:08.983Z,10120.00
2023-05-25T05:29:08.973Z,8152.00
2023-05-25T05:30:08.995Z,7456.00
2023-05-25T05:31:08.996Z,7896.00
2023-05-25T05:32:08.950Z,9520.00
2023-05-25T05:33:09.107Z,11364.00
2023-05-25T05:34:09.035Z,10236.00
2023-05-25T05:35:08.955Z,8768.00
2023-05-25T05:36:08.920Z,7376.00
2023-05-25T05:37:08.920Z,6896.00
2023-05-25T05:38:08.904Z,7068.00
2023-05-25T05:39:08.924Z,7364.00
2023-05-25T05:40:08.890Z,6888.00
2023-05-25T05:41:08.883Z,6516.00
2023-05-25T05:42:08.874Z,6360.00
2023-05-25T05:43:08.890Z,6544.00
2023-05-25T05:44:08.883Z,6860.00
2023-05-25T05:45:08.853Z,7076.00
2023-05-25T05:46:08.881Z,7584.00
2023-05-25T05:47:08.838Z,8408.00
2023-05-25T05:48:08.901Z,8844.00
2023-05-25T05:49:08.910Z,8220.00
2023-05-25T05:50:08.820Z,7696.00
2023-05-25T05:51:08.808Z,8300.00
2023-05-25T05:52:08.792Z,9192.00
2023-05-25T05:53:08.810Z,8828.00
2023-05-25T05:54:08.781Z,7340.00
2023-05-25T05:55:08.772Z,6672.00
2023-05-25T05:56:08.764Z,6388.00
2023-05-25T05:57:08.754Z,6584.00
2023-05-25T05:58:08.794Z,7300.00
2023-05-25T05:59:08.747Z,7556.00
2023-05-25T06:00:08.735Z,7040.00
2023-05-25T06:01:08.723Z,6628.00
2023-05-25T06:02:08.758Z,6200.00
2023-05-25T06:03:08.750Z,6280.00
2023-05-25T06:04:08.703Z,6128.00
2023-05-25T06:05:08.830Z,5796.00
2023-05-25T06:06:08.770Z,5528.00
2023-05-25T06:07:08.696Z,5668.00
2023-05-25T06:08:08.674Z,5952.00
2023-05-25T06:09:08.657Z,5924.00
2023-05-25T06:10:08.655Z,5956.00
2023-05-25T06:11:08.644Z,6060.00
2023-05-25T06:12:08.670Z,6220.00
2023-05-25T06:13:08.630Z,6376.00
2023-05-25T06:14:08.630Z,7064.00
2023-05-25T06:15:08.629Z,7276.00
2023-05-25T06:16:08.680Z,8096.00
2023-05-25T06:17:08.660Z,9460.00
2023-05-25T06:18:08.626Z,9296.00
2023-05-25T06:19:08.591Z,9304.00
2023-05-25T06:20:08.584Z,9428.00
2023-05-25T06:21:09.479Z,9984.00
2023-05-25T06:22:08.591Z,10556.00
2023-05-25T06:23:08.545Z,10704.00
2023-05-25T06:24:08.539Z,10392.00
2023-05-25T06:25:08.533Z,10156.00
2023-05-25T06:26:08.556Z,8768.00
2023-05-25T06:27:08.546Z,8800.00
2023-05-25T06:28:08.520Z,9408.00
2023-05-25T06:29:08.503Z,10664.00
2023-05-25T06:30:08.495Z,13208.00
2023-05-25T06:31:08.510Z,18048.00
2023-05-25T06:32:08.593Z,22976.00
2023-05-25T06:33:08.574Z,19520.00
2023-05-25T06:34:08.455Z,19840.00
2023-05-25T06:35:08.456Z,22944.00
2023-05-25T06:36:09.125Z,22816.00
2023-05-25T06:37:08.492Z,27904.00
2023-05-25T06:38:08.432Z,31360.00
2023-05-25T06:39:08.425Z,43552.00
2023-05-25T06:40:08.438Z,43264.00
2023-05-25T06:41:08.436Z,44160.00
2023-05-25T06:42:08.418Z,68416.00
2023-05-25T06:43:08.385Z,76896.00
2023-05-25T06:44:09.380Z,83328.00
2023-05-25T06:45:08.404Z,84320.00
2023-05-25T06:46:08.410Z,82560.00
2023-05-25T06:47:08.378Z,82144.00
2023-05-25T06:48:08.385Z,77376.00
2023-05-25T06:49:08.347Z,79296.00
2023-05-25T06:50:08.355Z,81312.00
2023-05-25T06:51:08.336Z,81280.00
2023-05-25T06:52:08.318Z,80960.00
2023-05-25T06:53:08.323Z,81536.00
2023-05-25T06:54:08.314Z,82592.00
2023-05-25T06:55:08.337Z,81856.00
2023-05-25T06:56:08.285Z,84992.00
2023-05-25T06:57:08.283Z,72224.00
2023-05-25T06:58:08.275Z,86112.00
2023-05-25T06:59:08.309Z,71968.00
2023-05-25T07:00:08.305Z,87136.00
2023-05-25T07:01:08.301Z,89248.00
2023-05-25T07:02:08.248Z,89056.00
2023-05-25T07:03:08.319Z,87904.00
2023-05-25T07:04:08.275Z,88192.00
2023-05-25T07:05:08.271Z,89056.00
2023-05-25T07:06:08.236Z,91296.00
2023-05-25T07:07:08.223Z,91872.00
2023-05-25T07:08:08.213Z,93120.00
2023-05-25T07:09:08.221Z,92512.00
2023-05-25T07:10:08.202Z,91776.00
2023-05-25T07:11:08.184Z,95808.00
2023-05-25T07:12:08.176Z,99744.00
2023-05-25T07:13:08.224Z,96480.00
2023-05-25T07:14:08.186Z,97376.00
2023-05-25T07:15:08.159Z,98496.00
2023-05-25T07:16:08.261Z,97696.00
2023-05-25T07:17:08.151Z,96896.00
2023-05-25T07:18:08.200Z,96640.00
2023-05-25T07:19:08.125Z,98176.00
2023-05-25T07:20:08.172Z,99072.00
2023-05-25T07:21:08.111Z,99328.00
2023-05-25T07:22:08.105Z,99296.00
2023-05-25T07:23:08.120Z,98272.00
2023-05-25T07:24:08.093Z,97792.00
2023-05-25T07:25:08.109Z,100672.00
2023-05-25T07:26:08.074Z,100768.00
2023-05-25T07:27:08.094Z,102048.00
2023-05-25T07:28:08.100Z,103744.00
2023-05-25T07:29:08.056Z,104000.00
2023-05-25T07:30:08.068Z,102624.00
2023-05-25T07:31:08.058Z,102784.00
2023-05-25T07:32:08.070Z,104736.00
2023-05-25T07:33:08.153Z,102816.00
2023-05-25T07:34:08.034Z,102880.00
2023-05-25T07:35:08.017Z,102976.00
2023-05-25T07:36:08.005Z,103968.00
2023-05-25T07:37:08.022Z,103296.00
2023-05-25T07:38:07.999Z,103840.00
2023-05-25T07:39:07.994Z,103456.00
2023-05-25T07:40:07.997Z,101632.00
2023-05-25T07:41:07.969Z,101504.00
2023-05-25T07:42:07.984Z,102304.00
2023-05-25T07:43:08.579Z,100640.00
2023-05-25T07:44:08.947Z,99456.00
2023-05-25T07:45:07.962Z,100160.00
2023-05-25T07:46:07.959Z,99392.00
2023-05-25T07:47:08.113Z,99424.00
2023-05-25T07:48:39.830Z,100672.00
2023-05-25T07:49:07.939Z,101408.00
2023-05-25T07:50:07.924Z,99264.00
2023-05-25T07:51:07.944Z,97344.00
2023-05-25T07:52:07.899Z,93504.00
2023-05-25T07:53:07.886Z,95808.00
2023-05-25T07:54:07.886Z,100800.00
2023-05-25T07:55:07.940Z,98848.00
2023-05-25T07:56:10.384Z,97344.00
2023-05-25T07:57:08.881Z,96128.00
2023-05-25T07:58:07.852Z,95392.00
2023-05-25T07:59:07.869Z,95200.00
2023-05-25T08:00:07.892Z,95968.00
2023-05-25T08:01:07.895Z,97376.00
2023-05-25T08:02:07.878Z,97024.00
2023-05-25T08:03:07.992Z,93888.00
2023-05-25T08:04:07.935Z,91808.00
2023-05-25T08:05:08.046Z,90592.00
2023-05-25T08:06:07.811Z,90720.00
2023-05-25T08:07:07.797Z,90304.00
2023-05-25T08:08:07.800Z,88384.00
2023-05-25T08:09:07.777Z,85088.00
2023-05-25T08:10:07.801Z,83520.00
2023-05-25T08:11:07.761Z,85248.00
2023-05-25T08:12:30.572Z,85472.00
2023-05-25T08:13:09.758Z,84032.00
2023-05-25T08:14:07.765Z,82528.00
2023-05-25T08:15:07.765Z,78848.00
2023-05-25T08:16:07.729Z,73408.00
2023-05-25T08:17:07.750Z,73376.00
2023-05-25T08:18:07.766Z,69184.00
2023-05-25T08:19:07.733Z,55072.00
2023-05-25T08:20:07.757Z,44384.00
2023-05-25T08:21:07.694Z,41664.00
2023-05-25T08:22:07.687Z,40224.00
2023-05-25T08:23:07.673Z,38624.00
2023-05-25T08:24:07.723Z,37856.00
2023-05-25T08:25:07.667Z,37312.00
2023-05-25T08:26:20.311Z,37376.00
2023-05-25T08:27:09.667Z,37248.00
2023-05-25T08:28:07.649Z,36608.00
2023-05-25T08:29:07.680Z,36384.00
2023-05-25T08:30:07.622Z,36352.00
2023-05-25T08:31:07.661Z,36320.00
2023-05-25T08:32:07.622Z,35744.00
2023-05-25T08:33:07.690Z,34368.00
2023-05-25T08:34:07.712Z,33856.00
2023-05-25T08:35:07.588Z,33120.00
2023-05-25T08:36:07.592Z,31776.00
2023-05-25T08:37:07.575Z,30848.00
2023-05-25T08:38:07.608Z,30016.00
2023-05-25T08:39:07.601Z,29728.00
2023-05-25T08:40:07.558Z,29824.00
2023-05-25T08:41:07.552Z,29408.00
2023-05-25T08:42:07.541Z,29440.00
2023-05-25T08:43:07.561Z,29568.00
2023-05-25T08:44:07.532Z,29056.00
2023-05-25T08:45:07.526Z,29152.00
2023-05-25T08:46:07.528Z,28800.00
2023-05-25T08:47:07.515Z,28448.00
2023-05-25T08:48:07.650Z,28832.00
2023-05-25T08:49:07.575Z,28544.00
2023-05-25T08:50:07.492Z,27968.00
2023-05-25T08:51:10.141Z,27456.00
2023-05-25T08:52:07.505Z,26976.00
2023-05-25T08:53:07.495Z,26688.00
2023-05-25T08:54:07.464Z,26400.00
2023-05-25T08:55:07.476Z,26624.00
2023-05-25T08:56:07.466Z,26592.00
2023-05-25T08:57:07.475Z,27616.00
2023-05-25T08:58:07.457Z,28608.00
2023-05-25T08:59:07.439Z,28416.00
2023-05-25T09:00:07.424Z,28768.00
2023-05-25T09:01:07.434Z,25472.00
2023-05-25T09:02:07.533Z,20160.00
2023-05-25T09:03:07.464Z,18592.00
2023-05-25T09:04:07.468Z,28256.00
2023-05-25T09:05:07.382Z,27488.00
2023-05-25T09:06:07.373Z,27808.00
2023-05-25T09:07:10.908Z,24800.00
2023-05-25T09:08:08.402Z,26592.00
2023-05-25T09:09:07.362Z,26944.00
2023-05-25T09:10:07.358Z,27680.00
2023-05-25T09:11:07.691Z,28448.00
2023-05-25T09:12:07.380Z,25280.00
2023-05-25T09:13:20.255Z,29152.00
2023-05-25T09:14:09.312Z,28448.00
2023-05-25T09:15:07.299Z,27232.00
2023-05-25T09:16:07.345Z,24160.00
2023-05-25T09:17:07.306Z,22560.00
2023-05-25T09:18:07.357Z,21792.00
2023-05-25T09:19:07.280Z,20448.00
2023-05-25T09:20:07.299Z,19552.00
2023-05-25T09:21:07.288Z,18816.00
2023-05-25T09:22:15.627Z,18304.00
2023-05-25T09:23:09.251Z,18208.00
2023-05-25T09:24:07.249Z,17792.00
2023-05-25T09:25:07.235Z,17600.00
2023-05-25T09:26:07.258Z,17344.00
2023-05-25T09:27:07.224Z,16928.00
2023-05-25T09:28:24.669Z,16544.00
2023-05-25T09:29:09.217Z,16544.00
2023-05-25T09:30:07.232Z,16704.00
2023-05-25T09:31:07.234Z,16640.00
2023-05-25T09:32:07.233Z,16672.00
2023-05-25T09:33:07.230Z,17280.00
2023-05-25T09:34:07.175Z,17856.00
2023-05-25T09:35:07.197Z,18016.00
2023-05-25T09:36:07.186Z,17792.00
2023-05-25T09:37:07.352Z,15684.00
2023-05-25T09:38:07.280Z,16028.00
2023-05-25T09:39:07.348Z,15532.00
2023-05-25T09:40:07.157Z,14896.00
2023-05-25T09:41:07.159Z,14808.00
2023-05-25T09:42:07.117Z,14624.00
2023-05-25T09:43:07.109Z,14500.00
2023-05-25T09:44:11.512Z,14152.00
2023-05-25T09:45:08.117Z,14124.00
2023-05-25T09:46:07.156Z,14172.00
2023-05-25T09:47:07.083Z,14380.00
2023-05-25T09:48:07.073Z,14572.00
2023-05-25T09:49:08.074Z,14876.00
2023-05-25T09:50:07.082Z,14868.00
2023-05-25T09:51:07.045Z,14384.00
2023-05-25T09:52:07.047Z,14176.00
2023-05-25T09:53:07.039Z,14084.00
2023-05-25T09:54:07.063Z,14144.00
2023-05-25T09:55:07.052Z,14216.00
2023-05-25T09:56:07.072Z,14392.00
2023-05-25T09:57:07.011Z,14272.00
2023-05-25T09:58:07.006Z,14112.00
2023-05-25T09:59:07.019Z,14052.00
2023-05-25T10:00:06.986Z,13732.00
2023-05-25T10:01:06.979Z,13348.00
2023-05-25T10:02:07.013Z,13044.00
2023-05-25T10:03:06.974Z,12980.00
2023-05-25T10:04:06.992Z,13032.00
2023-05-25T10:05:07.080Z,13052.00
2023-05-25T10:06:06.955Z,13096.00
2023-05-25T10:07:06.948Z,13092.00
2023-05-25T10:08:06.951Z,13092.00
2023-05-25T10:09:06.946Z,13132.00
2023-05-25T10:10:06.915Z,13068.00
2023-05-25T10:11:06.905Z,12996.00
2023-05-25T10:12:06.897Z,12860.00
2023-05-25T10:13:06.920Z,12788.00
2023-05-25T10:14:06.874Z,12780.00
2023-05-25T10:15:06.876Z,12860.00
2023-05-25T10:16:06.871Z,12976.00
2023-05-25T10:17:06.870Z,13080.00
2023-05-25T10:18:06.949Z,13208.00
2023-05-25T10:19:07.845Z,13292.00
2023-05-25T10:20:06.843Z,13212.00
2023-05-25T10:21:06.884Z,13048.00
2023-05-25T10:22:06.819Z,12900.00
2023-05-25T10:23:06.831Z,12968.00
2023-05-25T10:24:06.805Z,13288.00
2023-05-25T10:25:06.804Z,13212.00
2023-05-25T10:26:06.814Z,12744.00
2023-05-25T10:27:18.549Z,12516.00
2023-05-25T10:28:08.817Z,12340.00
2023-05-25T10:29:06.772Z,12092.00
2023-05-25T10:30:06.763Z,12004.00
2023-05-25T10:31:06.844Z,11960.00
2023-05-25T10:32:06.804Z,11540.00
2023-05-25T10:33:06.796Z,11884.00
2023-05-25T10:34:06.745Z,12072.00
2023-05-25T10:35:06.745Z,12228.00
2023-05-25T10:36:10.770Z,12596.00
2023-05-25T10:37:07.762Z,12664.00
2023-05-25T10:38:06.710Z,13068.00
2023-05-25T10:39:07.135Z,12816.00
2023-05-25T10:40:06.701Z,12732.00
2023-05-25T10:41:06.678Z,13476.00
2023-05-25T10:42:06.751Z,13380.00
2023-05-25T10:43:06.668Z,11524.00
2023-05-25T10:44:06.660Z,12032.00
2023-05-25T10:45:06.653Z,11396.00
2023-05-25T10:46:06.647Z,10288.00
2023-05-25T10:47:06.743Z,10200.00
2023-05-25T10:48:06.685Z,11572.00
2023-05-25T10:49:06.620Z,11220.00
2023-05-25T10:50:06.615Z,11100.00
2023-05-25T10:51:07.288Z,10972.00
2023-05-25T10:52:06.612Z,10992.00
2023-05-25T10:53:06.619Z,10984.00
2023-05-25T10:54:06.581Z,11012.00
2023-05-25T10:55:06.584Z,11048.00
2023-05-25T10:56:06.620Z,11236.00
2023-05-25T10:57:06.544Z,11448.00
2023-05-25T10:58:06.533Z,11792.00
2023-05-25T10:59:06.534Z,12152.00
2023-05-25T11:00:06.778Z,12616.00
2023-05-25T11:01:06.604Z,13008.00
2023-05-25T11:02:06.950Z,13208.00
2023-05-25T11:03:07.566Z,12752.00
2023-05-25T11:04:06.524Z,11092.00
2023-05-25T11:05:06.519Z,9076.00
2023-05-25T11:06:06.522Z,8548.00
2023-05-25T11:07:06.487Z,8256.00
2023-05-25T11:08:08.546Z,8268.00
2023-05-25T11:09:06.484Z,10000.00
2023-05-25T11:10:06.492Z,10076.00
2023-05-25T11:11:06.446Z,9972.00
2023-05-25T11:12:06.443Z,9876.00
2023-05-25T11:13:07.436Z,9748.00
2023-05-25T11:14:06.429Z,9692.00
2023-05-25T11:15:06.446Z,9532.00
2023-05-25T11:16:06.405Z,9336.00
2023-05-25T11:17:06.504Z,9256.00
2023-05-25T11:18:06.411Z,9208.00
2023-05-25T11:19:06.422Z,9096.00
2023-05-25T11:20:06.451Z,9028.00
2023-05-25T11:21:06.378Z,8908.00
2023-05-25T11:22:07.365Z,8928.00
2023-05-25T11:23:07.356Z,8896.00
2023-05-25T11:24:06.370Z,8852.00
2023-05-25T11:25:06.340Z,8828.00
2023-05-25T11:26:06.338Z,8748.00
2023-05-25T11:27:06.323Z,8708.00
2023-05-25T11:28:06.317Z,8704.00
2023-05-25T11:29:06.338Z,8652.00
2023-05-25T11:30:06.300Z,8604.00
2023-05-25T11:31:06.296Z,8548.00
2023-05-25T11:32:06.296Z,8512.00
2023-05-25T11:33:06.313Z,8504.00
2023-05-25T11:34:06.298Z,8480.00
2023-05-25T11:35:06.267Z,8432.00
2023-05-25T11:36:06.259Z,8388.00
2023-05-25T11:37:06.247Z,8380.00
2023-05-25T11:38:06.284Z,8360.00
2023-05-25T11:39:11.681Z,8300.00
2023-05-25T11:40:08.216Z,8264.00
2023-05-25T11:41:06.214Z,8216.00
2023-05-25T11:42:06.203Z,8276.00
2023-05-25T11:43:06.259Z,8244.00
2023-05-25T11:44:06.212Z,8220.00
2023-05-25T11:45:06.195Z,8180.00
2023-05-25T11:46:06.194Z,8136.00
2023-05-25T11:47:06.242Z,8124.00
2023-05-25T11:48:06.256Z,8104.00
2023-05-25T11:49:06.145Z,8088.00
2023-05-25T11:50:06.145Z,8084.00
2023-05-25T11:51:06.136Z,8080.00
2023-05-25T11:52:06.182Z,8056.00
2023-05-25T11:53:06.147Z,8064.00
2023-05-25T11:54:06.109Z,8056.00
2023-05-25T11:55:06.116Z,8040.00
2023-05-25T11:56:08.400Z,8068.00
2023-05-25T11:57:07.152Z,8088.00
2023-05-25T11:58:06.112Z,8052.00
2023-05-25T11:59:06.074Z,8044.00
2023-05-25T12:00:06.061Z,7988.00
2023-05-25T12:01:06.061Z,7992.00
2023-05-25T12:02:06.078Z,7988.00
2023-05-25T12:03:06.165Z,7984.00
2023-05-25T12:04:06.072Z,7976.00
2023-05-25T12:05:06.576Z,7960.00
2023-05-25T12:06:06.033Z,7972.00
2023-05-25T12:07:06.053Z,7948.00
2023-05-25T12:08:06.007Z,7968.00
2023-05-25T12:09:05.992Z,7936.00
2023-05-25T12:10:05.988Z,7928.00
2023-05-25T12:11:06.005Z,7900.00
2023-05-25T12:12:05.976Z,7924.00
2023-05-25T12:13:05.962Z,7848.00
2023-05-25T12:14:05.954Z,7888.00